sensor_id;sensor_type;location;lat;lon;timestamp;P1;durP1;ratioP1;P2;durP2;ratioP2
7057;SDS011;3570;43.080;25.628;2022-08-30T00:00:26;9.93;;;6.77;;
7057;SDS011;3570;43.080;25.628;2022-08-30T00:03:30;9.27;;;7.00;;
7057;SDS011;3570;43.080;25.628;2022-08-30T00:06:28;9.47;;;7.57;;
7057;SDS011;3570;43.080;25.628;2022-08-30T00:09:13;11.03;;;7.23;;
7057;SDS011;3570;43.080;25.628;2022-08-30T00:11:57;11.87;;;7.23;;
7057;SDS011;3570;43.080;25.628;2022-08-30T00:14:42;7.73;;;6.67;;
7057;SDS011;3570;43.080;25.628;2022-08-30T00:17:25;8.87;;;7.40;;
7057;SDS011;3570;43.080;25.628;2022-08-30T00:20:10;9.37;;;7.70;;
7057;SDS011;3570;43.080;25.628;2022-08-30T00:22:58;9.60;;;6.90;;
7057;SDS011;3570;43.080;25.628;2022-08-30T00:25:43;8.40;;;7.53;;
7057;SDS011;3570;43.080;25.628;2022-08-30T00:28:28;9.07;;;6.77;;
7057;SDS011;3570;43.080;25.628;2022-08-30T00:31:13;9.00;;;7.60;;
7057;SDS011;3570;43.080;25.628;2022-08-30T00:33:58;11.70;;;7.50;;
7057;SDS011;3570;43.080;25.628;2022-08-30T00:36:44;7.57;;;6.77;;
7057;SDS011;3570;43.080;25.628;2022-08-30T00:39:29;7.57;;;6.87;;
7057;SDS011;3570;43.080;25.628;2022-08-30T00:42:13;10.23;;;6.63;;
7057;SDS011;3570;43.080;25.628;2022-08-30T00:44:59;9.37;;;7.90;;
7057;SDS011;3570;43.080;25.628;2022-08-30T00:47:44;10.77;;;7.67;;
7057;SDS011;3570;43.080;25.628;2022-08-30T00:50:33;8.87;;;7.07;;
7057;SDS011;3570;43.080;25.628;2022-08-30T00:53:22;11.83;;;7.63;;
7057;SDS011;3570;43.080;25.628;2022-08-30T00:56:10;9.03;;;7.20;;
7057;SDS011;3570;43.080;25.628;2022-08-30T00:58:56;11.40;;;8.10;;
7057;SDS011;3570;43.080;25.628;2022-08-30T01:01:43;7.93;;;6.70;;
7057;SDS011;3570;43.080;25.628;2022-08-30T01:04:27;9.53;;;7.23;;
7057;SDS011;3570;43.080;25.628;2022-08-30T01:07:12;14.57;;;8.47;;
7057;SDS011;3570;43.080;25.628;2022-08-30T01:09:56;9.37;;;7.43;;
7057;SDS011;3570;43.080;25.628;2022-08-30T01:12:40;12.03;;;6.97;;
7057;SDS011;3570;43.080;25.628;2022-08-30T01:15:25;8.10;;;7.23;;
7057;SDS011;3570;43.080;25.628;2022-08-30T01:18:09;7.40;;;6.57;;
7057;SDS011;3570;43.080;25.628;2022-08-30T01:23:51;13.67;;;7.33;;
7057;SDS011;3570;43.080;25.628;2022-08-30T01:26:38;8.37;;;6.70;;
7057;SDS011;3570;43.080;25.628;2022-08-30T01:29:23;9.33;;;6.67;;
7057;SDS011;3570;43.080;25.628;2022-08-30T01:32:11;11.73;;;6.93;;
7057;SDS011;3570;43.080;25.628;2022-08-30T01:34:59;8.90;;;7.53;;
7057;SDS011;3570;43.080;25.628;2022-08-30T01:37:44;9.00;;;7.77;;
7057;SDS011;3570;43.080;25.628;2022-08-30T01:40:29;10.13;;;7.40;;
7057;SDS011;3570;43.080;25.628;2022-08-30T01:43:13;7.97;;;6.60;;
7057;SDS011;3570;43.080;25.628;2022-08-30T01:46:01;8.80;;;7.47;;
7057;SDS011;3570;43.080;25.628;2022-08-30T01:48:45;9.43;;;7.40;;
7057;SDS011;3570;43.080;25.628;2022-08-30T01:51:30;8.07;;;7.07;;
7057;SDS011;3570;43.080;25.628;2022-08-30T01:54:15;8.13;;;6.40;;
7057;SDS011;3570;43.080;25.628;2022-08-30T01:56:59;9.07;;;7.47;;
7057;SDS011;3570;43.080;25.628;2022-08-30T01:59:44;8.27;;;6.70;;
7057;SDS011;3570;43.080;25.628;2022-08-30T02:02:30;9.83;;;7.17;;
7057;SDS011;3570;43.080;25.628;2022-08-30T02:05:14;8.77;;;7.20;;
7057;SDS011;3570;43.080;25.628;2022-08-30T02:07:58;9.17;;;6.90;;
7057;SDS011;3570;43.080;25.628;2022-08-30T02:10:42;6.97;;;6.23;;
7057;SDS011;3570;43.080;25.628;2022-08-30T02:13:27;9.87;;;7.73;;
7057;SDS011;3570;43.080;25.628;2022-08-30T02:16:15;7.60;;;6.80;;
7057;SDS011;3570;43.080;25.628;2022-08-30T02:19:01;7.97;;;7.07;;
7057;SDS011;3570;43.080;25.628;2022-08-30T02:21:46;10.60;;;7.07;;
7057;SDS011;3570;43.080;25.628;2022-08-30T02:24:30;7.53;;;6.30;;
7057;SDS011;3570;43.080;25.628;2022-08-30T02:27:14;11.27;;;6.67;;
7057;SDS011;3570;43.080;25.628;2022-08-30T02:29:58;7.67;;;6.90;;
7057;SDS011;3570;43.080;25.628;2022-08-30T02:32:42;8.57;;;7.57;;
7057;SDS011;3570;43.080;25.628;2022-08-30T02:35:26;10.80;;;7.53;;
7057;SDS011;3570;43.080;25.628;2022-08-30T02:38:10;8.43;;;7.07;;
7057;SDS011;3570;43.080;25.628;2022-08-30T02:40:55;9.97;;;7.30;;
7057;SDS011;3570;43.080;25.628;2022-08-30T02:43:38;10.00;;;7.80;;
7057;SDS011;3570;43.080;25.628;2022-08-30T02:46:23;9.63;;;6.60;;
7057;SDS011;3570;43.080;25.628;2022-08-30T02:49:07;8.40;;;7.20;;
7057;SDS011;3570;43.080;25.628;2022-08-30T02:51:51;10.57;;;7.30;;
7057;SDS011;3570;43.080;25.628;2022-08-30T02:54:35;7.70;;;6.90;;
7057;SDS011;3570;43.080;25.628;2022-08-30T02:57:19;10.13;;;7.70;;
7057;SDS011;3570;43.080;25.628;2022-08-30T03:00:05;9.30;;;7.20;;
7057;SDS011;3570;43.080;25.628;2022-08-30T03:02:50;9.77;;;6.93;;
7057;SDS011;3570;43.080;25.628;2022-08-30T03:05:34;8.00;;;7.17;;
7057;SDS011;3570;43.080;25.628;2022-08-30T03:08:18;9.70;;;7.33;;
7057;SDS011;3570;43.080;25.628;2022-08-30T03:11:02;8.47;;;6.67;;
7057;SDS011;3570;43.080;25.628;2022-08-30T03:13:47;9.93;;;7.43;;
7057;SDS011;3570;43.080;25.628;2022-08-30T03:16:31;10.53;;;7.37;;
7057;SDS011;3570;43.080;25.628;2022-08-30T03:19:15;9.17;;;7.40;;
7057;SDS011;3570;43.080;25.628;2022-08-30T03:21:59;9.67;;;8.03;;
7057;SDS011;3570;43.080;25.628;2022-08-30T03:24:43;8.83;;;7.67;;
7057;SDS011;3570;43.080;25.628;2022-08-30T03:27:28;9.53;;;7.30;;
7057;SDS011;3570;43.080;25.628;2022-08-30T03:30:12;7.97;;;7.17;;
7057;SDS011;3570;43.080;25.628;2022-08-30T03:32:57;9.90;;;7.90;;
7057;SDS011;3570;43.080;25.628;2022-08-30T03:35:41;9.27;;;7.83;;
7057;SDS011;3570;43.080;25.628;2022-08-30T03:38:25;8.73;;;7.13;;
7057;SDS011;3570;43.080;25.628;2022-08-30T03:41:09;7.60;;;6.67;;
7057;SDS011;3570;43.080;25.628;2022-08-30T03:43:54;10.30;;;7.20;;
7057;SDS011;3570;43.080;25.628;2022-08-30T03:46:38;8.27;;;7.10;;
7057;SDS011;3570;43.080;25.628;2022-08-30T03:49:22;12.33;;;7.93;;
7057;SDS011;3570;43.080;25.628;2022-08-30T03:52:07;11.77;;;7.50;;
7057;SDS011;3570;43.080;25.628;2022-08-30T03:54:51;8.17;;;7.37;;
7057;SDS011;3570;43.080;25.628;2022-08-30T03:57:35;9.30;;;7.37;;
7057;SDS011;3570;43.080;25.628;2022-08-30T04:00:19;8.30;;;7.40;;
7057;SDS011;3570;43.080;25.628;2022-08-30T04:03:03;9.23;;;7.70;;
7057;SDS011;3570;43.080;25.628;2022-08-30T04:05:48;14.20;;;7.37;;
7057;SDS011;3570;43.080;25.628;2022-08-30T04:08:32;10.13;;;7.93;;
7057;SDS011;3570;43.080;25.628;2022-08-30T04:11:16;9.77;;;8.30;;
7057;SDS011;3570;43.080;25.628;2022-08-30T04:14:00;10.53;;;7.33;;
7057;SDS011;3570;43.080;25.628;2022-08-30T04:16:44;9.27;;;7.50;;
7057;SDS011;3570;43.080;25.628;2022-08-30T04:19:28;9.27;;;7.57;;
7057;SDS011;3570;43.080;25.628;2022-08-30T04:22:12;8.50;;;7.43;;
7057;SDS011;3570;43.080;25.628;2022-08-30T04:24:56;15.30;;;8.60;;
7057;SDS011;3570;43.080;25.628;2022-08-30T04:27:41;11.73;;;7.70;;
7057;SDS011;3570;43.080;25.628;2022-08-30T04:30:25;10.57;;;7.70;;
7057;SDS011;3570;43.080;25.628;2022-08-30T04:33:10;10.33;;;7.27;;
7057;SDS011;3570;43.080;25.628;2022-08-30T04:35:59;8.90;;;7.47;;
7057;SDS011;3570;43.080;25.628;2022-08-30T04:38:47;11.57;;;7.97;;
7057;SDS011;3570;43.080;25.628;2022-08-30T04:41:31;9.60;;;7.83;;
7057;SDS011;3570;43.080;25.628;2022-08-30T04:44:15;10.70;;;7.13;;
7057;SDS011;3570;43.080;25.628;2022-08-30T04:46:59;12.50;;;7.57;;
7057;SDS011;3570;43.080;25.628;2022-08-30T04:49:43;10.30;;;7.43;;
7057;SDS011;3570;43.080;25.628;2022-08-30T04:52:27;9.97;;;7.67;;
7057;SDS011;3570;43.080;25.628;2022-08-30T04:55:12;7.93;;;7.03;;
7057;SDS011;3570;43.080;25.628;2022-08-30T04:57:57;11.43;;;8.07;;
7057;SDS011;3570;43.080;25.628;2022-08-30T05:00:42;9.77;;;6.97;;
7057;SDS011;3570;43.080;25.628;2022-08-30T05:03:26;9.17;;;6.80;;
7057;SDS011;3570;43.080;25.628;2022-08-30T05:06:11;9.97;;;7.27;;
7057;SDS011;3570;43.080;25.628;2022-08-30T05:08:55;7.93;;;7.13;;
7057;SDS011;3570;43.080;25.628;2022-08-30T05:11:40;7.10;;;6.37;;
7057;SDS011;3570;43.080;25.628;2022-08-30T05:14:26;8.33;;;7.17;;
7057;SDS011;3570;43.080;25.628;2022-08-30T05:17:09;11.33;;;8.00;;
7057;SDS011;3570;43.080;25.628;2022-08-30T05:19:53;8.43;;;7.13;;
7057;SDS011;3570;43.080;25.628;2022-08-30T05:22:38;14.40;;;8.47;;
7057;SDS011;3570;43.080;25.628;2022-08-30T05:25:26;7.43;;;6.63;;
7057;SDS011;3570;43.080;25.628;2022-08-30T05:28:12;9.60;;;7.47;;
7057;SDS011;3570;43.080;25.628;2022-08-30T05:30:56;9.97;;;7.70;;
7057;SDS011;3570;43.080;25.628;2022-08-30T05:33:40;7.93;;;6.93;;
7057;SDS011;3570;43.080;25.628;2022-08-30T05:36:26;8.40;;;6.70;;
7057;SDS011;3570;43.080;25.628;2022-08-30T05:39:11;8.53;;;6.67;;
7057;SDS011;3570;43.080;25.628;2022-08-30T05:41:56;7.43;;;6.47;;
7057;SDS011;3570;43.080;25.628;2022-08-30T05:44:41;7.87;;;6.50;;
7057;SDS011;3570;43.080;25.628;2022-08-30T05:47:25;10.20;;;7.33;;
7057;SDS011;3570;43.080;25.628;2022-08-30T05:50:09;8.13;;;7.23;;
7057;SDS011;3570;43.080;25.628;2022-08-30T05:52:53;8.27;;;6.40;;
7057;SDS011;3570;43.080;25.628;2022-08-30T05:55:39;11.60;;;6.90;;
7057;SDS011;3570;43.080;25.628;2022-08-30T05:58:24;7.17;;;6.30;;
7057;SDS011;3570;43.080;25.628;2022-08-30T06:01:17;8.70;;;6.17;;
7057;SDS011;3570;43.080;25.628;2022-08-30T06:04:09;7.60;;;6.10;;
7057;SDS011;3570;43.080;25.628;2022-08-30T06:06:54;9.03;;;6.27;;
7057;SDS011;3570;43.080;25.628;2022-08-30T06:09:38;8.73;;;5.97;;
7057;SDS011;3570;43.080;25.628;2022-08-30T06:12:22;7.63;;;6.37;;
7057;SDS011;3570;43.080;25.628;2022-08-30T06:15:06;8.40;;;6.03;;
7057;SDS011;3570;43.080;25.628;2022-08-30T06:17:50;7.80;;;6.27;;
7057;SDS011;3570;43.080;25.628;2022-08-30T06:20:38;9.00;;;6.53;;
7057;SDS011;3570;43.080;25.628;2022-08-30T06:23:23;9.87;;;5.50;;
7057;SDS011;3570;43.080;25.628;2022-08-30T06:26:07;8.80;;;6.40;;
7057;SDS011;3570;43.080;25.628;2022-08-30T06:28:53;8.33;;;5.87;;
7057;SDS011;3570;43.080;25.628;2022-08-30T06:31:38;8.63;;;6.40;;
7057;SDS011;3570;43.080;25.628;2022-08-30T06:34:22;9.03;;;6.27;;
7057;SDS011;3570;43.080;25.628;2022-08-30T06:37:06;7.10;;;6.40;;
7057;SDS011;3570;43.080;25.628;2022-08-30T06:39:50;10.23;;;5.93;;
7057;SDS011;3570;43.080;25.628;2022-08-30T06:42:34;7.53;;;5.67;;
7057;SDS011;3570;43.080;25.628;2022-08-30T06:45:19;6.57;;;5.73;;
7057;SDS011;3570;43.080;25.628;2022-08-30T06:48:03;6.10;;;5.40;;
7057;SDS011;3570;43.080;25.628;2022-08-30T06:50:51;6.60;;;5.90;;
7057;SDS011;3570;43.080;25.628;2022-08-30T06:53:36;6.35;;;5.72;;
7057;SDS011;3570;43.080;25.628;2022-08-30T06:56:21;8.32;;;5.72;;
7057;SDS011;3570;43.080;25.628;2022-08-30T06:59:05;6.57;;;5.97;;
7057;SDS011;3570;43.080;25.628;2022-08-30T07:01:49;6.65;;;5.68;;
7057;SDS011;3570;43.080;25.628;2022-08-30T07:04:33;7.07;;;6.03;;
7057;SDS011;3570;43.080;25.628;2022-08-30T07:07:17;6.80;;;5.45;;
7057;SDS011;3570;43.080;25.628;2022-08-30T07:10:03;6.35;;;5.35;;
7057;SDS011;3570;43.080;25.628;2022-08-30T07:12:49;6.35;;;5.65;;
7057;SDS011;3570;43.080;25.628;2022-08-30T07:15:33;11.10;;;5.80;;
7057;SDS011;3570;43.080;25.628;2022-08-30T07:18:18;7.57;;;5.57;;
7057;SDS011;3570;43.080;25.628;2022-08-30T07:21:30;6.00;;;5.30;;
7057;SDS011;3570;43.080;25.628;2022-08-30T07:24:16;7.90;;;5.65;;
7057;SDS011;3570;43.080;25.628;2022-08-30T07:27:01;7.35;;;6.10;;
7057;SDS011;3570;43.080;25.628;2022-08-30T07:29:47;6.78;;;5.82;;
7057;SDS011;3570;43.080;25.628;2022-08-30T07:32:32;7.43;;;5.55;;
7057;SDS011;3570;43.080;25.628;2022-08-30T07:35:16;8.98;;;5.80;;
7057;SDS011;3570;43.080;25.628;2022-08-30T07:38:00;7.95;;;5.85;;
7057;SDS011;3570;43.080;25.628;2022-08-30T07:40:44;7.30;;;5.35;;
7057;SDS011;3570;43.080;25.628;2022-08-30T07:43:29;7.32;;;5.90;;
7057;SDS011;3570;43.080;25.628;2022-08-30T07:46:15;7.50;;;5.35;;
7057;SDS011;3570;43.080;25.628;2022-08-30T07:48:59;6.22;;;5.25;;
7057;SDS011;3570;43.080;25.628;2022-08-30T07:51:44;6.88;;;5.03;;
7057;SDS011;3570;43.080;25.628;2022-08-30T07:54:29;5.78;;;5.25;;
7057;SDS011;3570;43.080;25.628;2022-08-30T07:57:13;7.07;;;5.45;;
7057;SDS011;3570;43.080;25.628;2022-08-30T07:59:57;5.97;;;5.38;;
7057;SDS011;3570;43.080;25.628;2022-08-30T08:02:42;5.60;;;5.10;;
7057;SDS011;3570;43.080;25.628;2022-08-30T08:05:26;6.30;;;5.03;;
7057;SDS011;3570;43.080;25.628;2022-08-30T08:08:10;6.20;;;4.90;;
7057;SDS011;3570;43.080;25.628;2022-08-30T08:10:56;6.68;;;5.10;;
7057;SDS011;3570;43.080;25.628;2022-08-30T08:13:41;7.18;;;6.47;;
7057;SDS011;3570;43.080;25.628;2022-08-30T08:16:27;7.20;;;5.40;;
7057;SDS011;3570;43.080;25.628;2022-08-30T08:19:13;5.78;;;5.18;;
7057;SDS011;3570;43.080;25.628;2022-08-30T08:21:58;6.13;;;5.05;;
7057;SDS011;3570;43.080;25.628;2022-08-30T08:24:42;5.07;;;4.68;;
7057;SDS011;3570;43.080;25.628;2022-08-30T08:27:26;5.82;;;5.03;;
7057;SDS011;3570;43.080;25.628;2022-08-30T08:30:12;6.32;;;5.30;;
7057;SDS011;3570;43.080;25.628;2022-08-30T08:32:56;6.55;;;5.50;;
7057;SDS011;3570;43.080;25.628;2022-08-30T08:35:40;5.10;;;4.63;;
7057;SDS011;3570;43.080;25.628;2022-08-30T08:38:24;5.75;;;5.20;;
7057;SDS011;3570;43.080;25.628;2022-08-30T08:41:16;5.55;;;4.65;;
7057;SDS011;3570;43.080;25.628;2022-08-30T08:47:40;6.75;;;5.03;;
7057;SDS011;3570;43.080;25.628;2022-08-30T08:50:45;4.80;;;4.40;;
7057;SDS011;3570;43.080;25.628;2022-08-30T08:54:00;5.05;;;4.57;;
7057;SDS011;3570;43.080;25.628;2022-08-30T08:57:08;5.70;;;4.75;;
7057;SDS011;3570;43.080;25.628;2022-08-30T08:59:53;5.75;;;5.13;;
7057;SDS011;3570;43.080;25.628;2022-08-30T09:02:43;6.47;;;4.65;;
7057;SDS011;3570;43.080;25.628;2022-08-30T09:05:37;6.18;;;4.88;;
7057;SDS011;3570;43.080;25.628;2022-08-30T09:08:23;5.43;;;4.93;;
7057;SDS011;3570;43.080;25.628;2022-08-30T09:11:07;5.50;;;5.00;;
7057;SDS011;3570;43.080;25.628;2022-08-30T09:14:05;6.13;;;4.80;;
7057;SDS011;3570;43.080;25.628;2022-08-30T09:16:58;6.10;;;4.30;;
7057;SDS011;3570;43.080;25.628;2022-08-30T09:19:44;5.82;;;4.65;;
7057;SDS011;3570;43.080;25.628;2022-08-30T09:22:49;6.30;;;4.50;;
7057;SDS011;3570;43.080;25.628;2022-08-30T09:25:33;4.60;;;4.03;;
7057;SDS011;3570;43.080;25.628;2022-08-30T09:28:20;4.50;;;3.88;;
7057;SDS011;3570;43.080;25.628;2022-08-30T09:31:17;4.25;;;3.90;;
7057;SDS011;3570;43.080;25.628;2022-08-30T09:34:17;7.47;;;4.55;;
7057;SDS011;3570;43.080;25.628;2022-08-30T09:37:04;4.88;;;4.43;;
7057;SDS011;3570;43.080;25.628;2022-08-30T09:40:08;4.65;;;4.25;;
7057;SDS011;3570;43.080;25.628;2022-08-30T09:43:03;5.70;;;4.32;;
7057;SDS011;3570;43.080;25.628;2022-08-30T09:48:44;5.78;;;5.18;;
7057;SDS011;3570;43.080;25.628;2022-08-30T09:51:39;7.00;;;5.03;;
7057;SDS011;3570;43.080;25.628;2022-08-30T09:54:34;6.78;;;4.43;;
7057;SDS011;3570;43.080;25.628;2022-08-30T10:00:23;6.65;;;4.63;;
7057;SDS011;3570;43.080;25.628;2022-08-30T10:06:14;5.95;;;4.28;;
7057;SDS011;3570;43.080;25.628;2022-08-30T10:09:25;4.80;;;4.38;;
7057;SDS011;3570;43.080;25.628;2022-08-30T10:18:31;5.25;;;4.03;;
7057;SDS011;3570;43.080;25.628;2022-08-30T10:21:25;5.38;;;4.13;;
7057;SDS011;3570;43.080;25.628;2022-08-30T10:24:19;5.13;;;4.20;;
7057;SDS011;3570;43.080;25.628;2022-08-30T10:27:13;5.55;;;4.78;;
7057;SDS011;3570;43.080;25.628;2022-08-30T10:30:11;4.05;;;3.72;;
7057;SDS011;3570;43.080;25.628;2022-08-30T10:32:59;4.65;;;4.25;;
7057;SDS011;3570;43.080;25.628;2022-08-30T10:35:53;4.55;;;4.15;;
7057;SDS011;3570;43.080;25.628;2022-08-30T10:38:40;7.00;;;5.18;;
7057;SDS011;3570;43.080;25.628;2022-08-30T10:41:40;4.88;;;4.18;;
7057;SDS011;3570;43.080;25.628;2022-08-30T10:44:31;5.28;;;4.30;;
7057;SDS011;3570;43.080;25.628;2022-08-30T10:52:56;4.88;;;4.47;;
7057;SDS011;3570;43.080;25.628;2022-08-30T10:55:52;5.93;;;4.28;;
7057;SDS011;3570;43.080;25.628;2022-08-30T10:58:41;5.45;;;4.70;;
7057;SDS011;3570;43.080;25.628;2022-08-30T11:05:01;5.50;;;4.68;;
7057;SDS011;3570;43.080;25.628;2022-08-30T11:08:13;6.22;;;3.90;;
7057;SDS011;3570;43.080;25.628;2022-08-30T11:14:17;5.22;;;4.10;;
7057;SDS011;3570;43.080;25.628;2022-08-30T11:17:03;4.90;;;4.03;;
7057;SDS011;3570;43.080;25.628;2022-08-30T11:19:47;5.57;;;4.18;;
7057;SDS011;3570;43.080;25.628;2022-08-30T11:22:32;5.60;;;4.13;;
7057;SDS011;3570;43.080;25.628;2022-08-30T11:34:06;6.90;;;4.53;;
7057;SDS011;3570;43.080;25.628;2022-08-30T11:39:43;5.53;;;4.57;;
7057;SDS011;3570;43.080;25.628;2022-08-30T11:42:45;6.10;;;4.55;;
7057;SDS011;3570;43.080;25.628;2022-08-30T12:01:39;4.70;;;3.50;;
7057;SDS011;3570;43.080;25.628;2022-08-30T12:04:27;4.25;;;3.38;;
7057;SDS011;3570;43.080;25.628;2022-08-30T12:10:40;4.65;;;3.45;;
7057;SDS011;3570;43.080;25.628;2022-08-30T12:16:20;5.05;;;3.38;;
7057;SDS011;3570;43.080;25.628;2022-08-30T12:19:18;5.68;;;4.15;;
7057;SDS011;3570;43.080;25.628;2022-08-30T12:22:04;4.78;;;4.07;;
7057;SDS011;3570;43.080;25.628;2022-08-30T12:24:50;4.13;;;3.72;;
7057;SDS011;3570;43.080;25.628;2022-08-30T12:27:36;4.80;;;3.97;;
7057;SDS011;3570;43.080;25.628;2022-08-30T12:30:25;5.85;;;5.05;;
7057;SDS011;3570;43.080;25.628;2022-08-30T12:33:11;4.05;;;3.67;;
7057;SDS011;3570;43.080;25.628;2022-08-30T12:36:05;4.55;;;3.90;;
7057;SDS011;3570;43.080;25.628;2022-08-30T12:38:49;4.68;;;4.20;;
7057;SDS011;3570;43.080;25.628;2022-08-30T12:41:48;4.45;;;4.05;;
7057;SDS011;3570;43.080;25.628;2022-08-30T12:44:33;5.13;;;4.13;;
7057;SDS011;3570;43.080;25.628;2022-08-30T12:47:30;5.38;;;4.32;;
7057;SDS011;3570;43.080;25.628;2022-08-30T12:50:26;4.47;;;4.05;;
7057;SDS011;3570;43.080;25.628;2022-08-30T12:53:30;4.32;;;3.90;;
7057;SDS011;3570;43.080;25.628;2022-08-30T12:56:17;4.18;;;3.72;;
7057;SDS011;3570;43.080;25.628;2022-08-30T12:59:01;4.28;;;3.88;;
7057;SDS011;3570;43.080;25.628;2022-08-30T13:01:45;5.03;;;3.97;;
7057;SDS011;3570;43.080;25.628;2022-08-30T13:04:29;7.70;;;4.03;;
7057;SDS011;3570;43.080;25.628;2022-08-30T13:07:30;4.70;;;4.10;;
7057;SDS011;3570;43.080;25.628;2022-08-30T13:10:18;5.93;;;4.60;;
7057;SDS011;3570;43.080;25.628;2022-08-30T13:13:03;4.78;;;4.28;;
7057;SDS011;3570;43.080;25.628;2022-08-30T13:15:49;4.95;;;4.43;;
7057;SDS011;3570;43.080;25.628;2022-08-30T13:18:33;5.85;;;4.38;;
7057;SDS011;3570;43.080;25.628;2022-08-30T13:24:12;5.40;;;4.57;;
7057;SDS011;3570;43.080;25.628;2022-08-30T13:27:03;6.47;;;4.22;;
7057;SDS011;3570;43.080;25.628;2022-08-30T13:29:55;4.40;;;4.00;;
7057;SDS011;3570;43.080;25.628;2022-08-30T13:32:39;5.47;;;4.65;;
7057;SDS011;3570;43.080;25.628;2022-08-30T13:35:24;6.25;;;4.65;;
7057;SDS011;3570;43.080;25.628;2022-08-30T13:38:08;5.15;;;4.50;;
7057;SDS011;3570;43.080;25.628;2022-08-30T13:40:52;7.00;;;4.80;;
7057;SDS011;3570;43.080;25.628;2022-08-30T13:43:35;5.10;;;4.60;;
7057;SDS011;3570;43.080;25.628;2022-08-30T13:46:21;5.35;;;4.25;;
7057;SDS011;3570;43.080;25.628;2022-08-30T13:49:08;7.57;;;5.00;;
7057;SDS011;3570;43.080;25.628;2022-08-30T13:52:05;6.20;;;4.70;;
7057;SDS011;3570;43.080;25.628;2022-08-30T13:54:52;5.28;;;4.28;;
7057;SDS011;3570;43.080;25.628;2022-08-30T13:57:37;4.85;;;4.35;;
7057;SDS011;3570;43.080;25.628;2022-08-30T14:00:21;5.70;;;4.05;;
7057;SDS011;3570;43.080;25.628;2022-08-30T14:03:07;5.63;;;5.13;;
7057;SDS011;3570;43.080;25.628;2022-08-30T14:05:51;8.27;;;4.70;;
7057;SDS011;3570;43.080;25.628;2022-08-30T14:08:35;8.90;;;5.38;;
7057;SDS011;3570;43.080;25.628;2022-08-30T14:11:21;7.03;;;5.07;;
7057;SDS011;3570;43.080;25.628;2022-08-30T14:14:05;7.25;;;4.93;;
7057;SDS011;3570;43.080;25.628;2022-08-30T14:16:50;5.18;;;4.60;;
7057;SDS011;3570;43.080;25.628;2022-08-30T14:19:33;5.50;;;4.50;;
7057;SDS011;3570;43.080;25.628;2022-08-30T14:22:17;5.47;;;4.95;;
7057;SDS011;3570;43.080;25.628;2022-08-30T14:25:03;5.22;;;4.72;;
7057;SDS011;3570;43.080;25.628;2022-08-30T14:27:48;5.90;;;5.10;;
7057;SDS011;3570;43.080;25.628;2022-08-30T14:30:32;6.53;;;4.53;;
7057;SDS011;3570;43.080;25.628;2022-08-30T14:33:16;5.68;;;4.70;;
7057;SDS011;3570;43.080;25.628;2022-08-30T14:36:01;5.63;;;4.32;;
7057;SDS011;3570;43.080;25.628;2022-08-30T14:38:45;5.15;;;4.53;;
7057;SDS011;3570;43.080;25.628;2022-08-30T14:41:29;5.10;;;4.60;;
7057;SDS011;3570;43.080;25.628;2022-08-30T14:44:14;5.10;;;4.18;;
7057;SDS011;3570;43.080;25.628;2022-08-30T14:47:00;5.60;;;3.85;;
7057;SDS011;3570;43.080;25.628;2022-08-30T14:49:44;4.50;;;4.10;;
7057;SDS011;3570;43.080;25.628;2022-08-30T14:52:28;5.20;;;4.35;;
7057;SDS011;3570;43.080;25.628;2022-08-30T14:55:13;6.82;;;4.13;;
7057;SDS011;3570;43.080;25.628;2022-08-30T14:57:58;7.88;;;5.05;;
7057;SDS011;3570;43.080;25.628;2022-08-30T15:00:50;7.57;;;5.00;;
7057;SDS011;3570;43.080;25.628;2022-08-30T15:03:36;6.13;;;4.78;;
7057;SDS011;3570;43.080;25.628;2022-08-30T15:06:21;9.98;;;4.82;;
7057;SDS011;3570;43.080;25.628;2022-08-30T15:09:07;5.80;;;4.75;;
7057;SDS011;3570;43.080;25.628;2022-08-30T15:11:53;11.23;;;4.95;;
7057;SDS011;3570;43.080;25.628;2022-08-30T15:14:39;8.00;;;4.57;;
7057;SDS011;3570;43.080;25.628;2022-08-30T15:17:23;5.07;;;4.57;;
7057;SDS011;3570;43.080;25.628;2022-08-30T15:20:08;7.72;;;5.40;;
7057;SDS011;3570;43.080;25.628;2022-08-30T15:22:53;6.20;;;4.90;;
7057;SDS011;3570;43.080;25.628;2022-08-30T15:25:36;6.63;;;4.55;;
7057;SDS011;3570;43.080;25.628;2022-08-30T15:28:20;5.05;;;4.60;;
7057;SDS011;3570;43.080;25.628;2022-08-30T15:31:05;6.40;;;5.07;;
7057;SDS011;3570;43.080;25.628;2022-08-30T15:33:49;6.22;;;4.80;;
7057;SDS011;3570;43.080;25.628;2022-08-30T15:36:34;4.55;;;4.13;;
7057;SDS011;3570;43.080;25.628;2022-08-30T15:39:19;5.75;;;4.60;;
7057;SDS011;3570;43.080;25.628;2022-08-30T15:42:03;6.63;;;4.82;;
7057;SDS011;3570;43.080;25.628;2022-08-30T15:44:51;7.93;;;4.97;;
7057;SDS011;3570;43.080;25.628;2022-08-30T15:47:37;7.57;;;5.38;;
7057;SDS011;3570;43.080;25.628;2022-08-30T15:50:21;5.40;;;4.90;;
7057;SDS011;3570;43.080;25.628;2022-08-30T15:53:05;7.50;;;4.93;;
7057;SDS011;3570;43.080;25.628;2022-08-30T15:55:49;5.35;;;4.85;;
7057;SDS011;3570;43.080;25.628;2022-08-30T15:58:33;5.32;;;4.82;;
7057;SDS011;3570;43.080;25.628;2022-08-30T16:01:17;5.97;;;4.72;;
7057;SDS011;3570;43.080;25.628;2022-08-30T16:04:01;8.45;;;5.55;;
7057;SDS011;3570;43.080;25.628;2022-08-30T16:06:46;7.45;;;5.70;;
7057;SDS011;3570;43.080;25.628;2022-08-30T16:09:32;8.25;;;5.78;;
7057;SDS011;3570;43.080;25.628;2022-08-30T16:12:18;5.80;;;5.20;;
7057;SDS011;3570;43.080;25.628;2022-08-30T16:15:02;5.53;;;5.00;;
7057;SDS011;3570;43.080;25.628;2022-08-30T16:17:46;5.35;;;4.78;;
7057;SDS011;3570;43.080;25.628;2022-08-30T16:20:30;6.70;;;5.20;;
7057;SDS011;3570;43.080;25.628;2022-08-30T16:23:14;8.00;;;5.82;;
7057;SDS011;3570;43.080;25.628;2022-08-30T16:25:59;6.25;;;5.60;;
7057;SDS011;3570;43.080;25.628;2022-08-30T16:28:44;6.82;;;6.13;;
7057;SDS011;3570;43.080;25.628;2022-08-30T16:31:30;6.50;;;5.90;;
7057;SDS011;3570;43.080;25.628;2022-08-30T16:34:16;8.10;;;5.65;;
7057;SDS011;3570;43.080;25.628;2022-08-30T16:37:02;6.95;;;5.63;;
7057;SDS011;3570;43.080;25.628;2022-08-30T16:39:46;8.48;;;5.10;;
7057;SDS011;3570;43.080;25.628;2022-08-30T16:42:30;7.95;;;5.55;;
7057;SDS011;3570;43.080;25.628;2022-08-30T16:45:14;7.57;;;6.10;;
7057;SDS011;3570;43.080;25.628;2022-08-30T16:47:59;8.23;;;5.70;;
7057;SDS011;3570;43.080;25.628;2022-08-30T16:50:43;7.30;;;5.67;;
7057;SDS011;3570;43.080;25.628;2022-08-30T16:53:28;6.83;;;5.43;;
7057;SDS011;3570;43.080;25.628;2022-08-30T16:56:13;6.40;;;5.80;;
7057;SDS011;3570;43.080;25.628;2022-08-30T16:58:59;8.03;;;5.93;;
7057;SDS011;3570;43.080;25.628;2022-08-30T17:01:43;6.90;;;5.63;;
7057;SDS011;3570;43.080;25.628;2022-08-30T17:04:28;8.60;;;6.43;;
7057;SDS011;3570;43.080;25.628;2022-08-30T17:07:12;6.50;;;5.67;;
7057;SDS011;3570;43.080;25.628;2022-08-30T17:09:56;8.83;;;6.03;;
7057;SDS011;3570;43.080;25.628;2022-08-30T17:12:40;7.30;;;6.20;;
7057;SDS011;3570;43.080;25.628;2022-08-30T17:15:24;6.17;;;4.97;;
7057;SDS011;3570;43.080;25.628;2022-08-30T17:18:09;8.67;;;6.07;;
7057;SDS011;3570;43.080;25.628;2022-08-30T17:20:57;6.17;;;5.57;;
7057;SDS011;3570;43.080;25.628;2022-08-30T17:23:41;8.37;;;5.77;;
7057;SDS011;3570;43.080;25.628;2022-08-30T17:26:25;6.40;;;5.77;;
7057;SDS011;3570;43.080;25.628;2022-08-30T17:29:09;7.70;;;6.03;;
7057;SDS011;3570;43.080;25.628;2022-08-30T17:31:54;6.70;;;5.30;;
7057;SDS011;3570;43.080;25.628;2022-08-30T17:34:38;8.17;;;5.93;;
7057;SDS011;3570;43.080;25.628;2022-08-30T17:37:22;6.47;;;5.67;;
7057;SDS011;3570;43.080;25.628;2022-08-30T17:40:07;9.13;;;5.37;;
7057;SDS011;3570;43.080;25.628;2022-08-30T17:42:51;8.23;;;6.13;;
7057;SDS011;3570;43.080;25.628;2022-08-30T17:45:36;7.80;;;6.10;;
7057;SDS011;3570;43.080;25.628;2022-08-30T17:48:20;7.90;;;6.00;;
7057;SDS011;3570;43.080;25.628;2022-08-30T17:51:05;7.10;;;6.07;;
7057;SDS011;3570;43.080;25.628;2022-08-30T17:53:49;7.67;;;6.00;;
7057;SDS011;3570;43.080;25.628;2022-08-30T17:56:33;6.33;;;5.70;;
7057;SDS011;3570;43.080;25.628;2022-08-30T17:59:17;7.77;;;5.97;;
7057;SDS011;3570;43.080;25.628;2022-08-30T18:02:02;7.97;;;5.77;;
7057;SDS011;3570;43.080;25.628;2022-08-30T18:04:47;7.77;;;6.07;;
7057;SDS011;3570;43.080;25.628;2022-08-30T18:07:31;9.07;;;6.20;;